Temp: 17.4°C   Baro: 1015.4mb
  Wind: 14.1mph   Dir: W (269°)
  Rain: 9.6mm (0.0mm/hr)
  Solar: 712W/m2  Hum: 66%
 
Bath Spa Weather Historical Data
Daily Summary for July 16, 2019 Units:  Metric    English   Both
Next Day »
Daily Weekly Monthly Yearly Custom
  High: Low: Average:
Temperature: 27.1 °C 11.7 °C 18.8 °C
Dew Point: 14.6 °C 9.4 °C 12 °C
Humidity: 87% 41% 67%
Wind Speed: 17.7km/h 0.0km/h 2.6km/h
Wind Gust: 17.7km/h - -
Wind direction- - SW
Pressure: 1020.5 hPa 1016.5 hPa -
Precipitation: 0.0 mm    
Historical Graphs
 
 
Tabular Data for July 16, 2019
Time Temperature Dew Point Pressure Wind direction Wind Speed Wind Gust Humidity Rainfall Rate (Hourly) solar
00:04 15.5 °C 11.3 °C 1020.5 hPa Calm     76% 0.0 mm 0.00 W/m2
00:09 15.3 °C 11.1 °C 1020.5 hPa Calm   1.6 km/h 76% 0.0 mm 0.00 W/m2
00:14 15.2 °C 11.0 °C 1020.5 hPa Calm     76% 0.0 mm 0.00 W/m2
00:19 15.0 °C 11.0 °C 1020.5 hPa Calm   1.6 km/h 77% 0.0 mm 0.00 W/m2
00:24 14.9 °C 11.1 °C 1020.5 hPa SW 1.4 km/h 1.6 km/h 78% 0.0 mm 0.00 W/m2
00:29 14.7 °C 10.9 °C 1020.5 hPa Calm     78% 0.0 mm 0.00 W/m2
00:34 14.5 °C 10.9 °C 1020.5 hPa Calm     79% 0.0 mm 0.00 W/m2
00:39 14.3 °C 10.7 °C 1020.5 hPa Calm     79% 0.0 mm 0.00 W/m2
00:44 14.0 °C 10.6 °C 1020.5 hPa SW 1.4 km/h 3.2 km/h 80% 0.0 mm 0.00 W/m2
00:49 13.9 °C 10.7 °C 1020.5 hPa Calm   1.6 km/h 81% 0.0 mm 0.00 W/m2
00:54 13.8 °C 10.6 °C 1020.5 hPa SW 1.4 km/h 3.2 km/h 81% 0.0 mm 0.00 W/m2
00:59 13.9 °C 10.9 °C 1020.5 hPa Calm   1.6 km/h 82% 0.0 mm 0.00 W/m2
01:04 13.8 °C 10.8 °C 1020.5 hPa SW 1.4 km/h 1.6 km/h 82% 0.0 mm 0.00 W/m2
01:09 13.8 °C 10.8 °C 1020.5 hPa Calm     82% 0.0 mm 0.00 W/m2
01:14 13.9 °C 10.9 °C 1020.5 hPa Calm     82% 0.0 mm 0.00 W/m2
01:19 13.9 °C 10.9 °C 1020.5 hPa SW 3.2 km/h 3.2 km/h 82% 0.0 mm 0.00 W/m2
01:24 13.9 °C 10.9 °C 1020.5 hPa Calm     82% 0.0 mm 0.00 W/m2
01:29 13.9 °C 10.9 °C 1020.5 hPa Calm   1.6 km/h 82% 0.0 mm 0.00 W/m2
01:34 13.8 °C 10.8 °C 1020.5 hPa Calm     82% 0.0 mm 0.00 W/m2
01:39 13.7 °C 10.7 °C 1020.5 hPa Calm   1.6 km/h 82% 0.0 mm 0.00 W/m2
01:44 13.6 °C 10.6 °C 1020.5 hPa SW 6.4 km/h 6.4 km/h 82% 0.0 mm 0.00 W/m2
01:49 13.5 °C 10.5 °C 1020.5 hPa Calm     82% 0.0 mm 0.00 W/m2
01:54 13.5 °C 10.7 °C 1020.5 hPa Calm     83% 0.0 mm 0.00 W/m2
01:59 13.4 °C 10.6 °C 1020.5 hPa Calm     83% 0.0 mm 0.00 W/m2
02:04 13.4 °C 10.6 °C 1020.5 hPa Calm   4.8 km/h 83% 0.0 mm 0.00 W/m2
02:09 13.3 °C 10.5 °C 1020.2 hPa SW 3.2 km/h 3.2 km/h 83% 0.0 mm 0.00 W/m2
02:14 13.2 °C 10.4 °C 1020.2 hPa SW 1.4 km/h 4.8 km/h 83% 0.0 mm 0.00 W/m2
02:19 13.1 °C 10.3 °C 1020.2 hPa Calm   1.6 km/h 83% 0.0 mm 0.00 W/m2
02:24 13.1 °C 10.5 °C 1020.2 hPa Calm   3.2 km/h 84% 0.0 mm 0.00 W/m2
02:29 13.1 °C 10.5 °C 1020.2 hPa Calm     84% 0.0 mm 0.00 W/m2
02:34 12.9 °C 10.3 °C 1020.2 hPa Calm     84% 0.0 mm 0.00 W/m2
02:39 12.9 °C 10.3 °C 1020.2 hPa Calm   1.6 km/h 84% 0.0 mm 0.00 W/m2
02:44 12.8 °C 10.2 °C 1020.2 hPa Calm   1.6 km/h 84% 0.0 mm 0.00 W/m2
02:49 12.8 °C 10.2 °C 1020.2 hPa Calm     84% 0.0 mm 0.00 W/m2
02:54 12.9 °C 10.4 °C 1020.2 hPa Calm     85% 0.0 mm 0.00 W/m2
02:59 12.8 °C 10.2 °C 1020.2 hPa Calm     84% 0.0 mm 0.00 W/m2
03:04 12.9 °C 10.4 °C 1020.2 hPa Calm     85% 0.0 mm 0.00 W/m2
03:09 12.9 °C 10.4 °C 1019.9 hPa Calm     85% 0.0 mm 0.00 W/m2
03:14 12.9 °C 10.4 °C 1019.9 hPa Calm     85% 0.0 mm 0.00 W/m2
03:19 12.9 °C 10.4 °C 1019.9 hPa Calm     85% 0.0 mm 0.00 W/m2
03:24 12.9 °C 10.4 °C 1019.9 hPa Calm     85% 0.0 mm 0.00 W/m2
03:29 12.9 °C 10.4 °C 1019.9 hPa Calm     85% 0.0 mm 0.00 W/m2
03:34 12.9 °C 10.4 °C 1019.9 hPa Calm     85% 0.0 mm 0.00 W/m2
03:39 12.9 °C 10.3 °C 1019.9 hPa Calm     84% 0.0 mm 0.00 W/m2
03:44 12.9 °C 10.3 °C 1019.9 hPa Calm     84% 0.0 mm 0.00 W/m2
03:49 12.8 °C 10.2 °C 1019.9 hPa Calm     84% 0.0 mm 0.00 W/m2
03:54 12.8 °C 10.2 °C 1019.9 hPa Calm     84% 0.0 mm 0.00 W/m2
03:59 12.8 °C 10.2 °C 1019.9 hPa Calm     84% 0.0 mm 0.00 W/m2
04:04 12.7 °C 10.1 °C 1019.9 hPa Calm     84% 0.0 mm 0.00 W/m2
04:09 12.7 °C 10.1 °C 1019.9 hPa Calm     84% 0.0 mm 0.00 W/m2
04:14 12.7 °C 10.2 °C 1019.9 hPa Calm     85% 0.0 mm 0.00 W/m2
04:19 12.7 °C 10.2 °C 1019.9 hPa Calm     85% 0.0 mm 0.00 W/m2
04:24 12.7 °C 10.2 °C 1019.9 hPa Calm     85% 0.0 mm 0.00 W/m2
04:29 12.7 °C 10.1 °C 1019.9 hPa Calm     84% 0.0 mm 0.00 W/m2
04:34 12.7 °C 10.1 °C 1019.9 hPa Calm     84% 0.0 mm 0.00 W/m2
04:39 12.7 °C 10.1 °C 1019.9 hPa Calm     84% 0.0 mm 0.00 W/m2
04:44 12.5 °C 9.9 °C 1019.9 hPa Calm     84% 0.0 mm 0.00 W/m2
04:49 12.4 °C 9.8 °C 1019.9 hPa Calm     84% 0.0 mm 0.00 W/m2
04:54 12.4 °C 9.9 °C 1019.9 hPa Calm     85% 0.0 mm 0.00 W/m2
04:59 12.3 °C 9.9 °C 1019.9 hPa Calm     85% 0.0 mm 0.00 W/m2
05:04 12.3 °C 9.9 °C 1019.9 hPa Calm     85% 0.0 mm 0.00 W/m2
05:09 12.2 °C 9.8 °C 1019.9 hPa Calm     85% 0.0 mm 0.00 W/m2
05:14 12.1 °C 9.7 °C 1019.9 hPa Calm     85% 0.0 mm 0.00 W/m2
05:19 12.0 °C 9.6 °C 1019.9 hPa Calm     85% 0.0 mm 5.00 W/m2
05:24 12.0 °C 9.6 °C 1019.9 hPa Calm     85% 0.0 mm 7.00 W/m2
05:29 12.0 °C 9.6 °C 1019.9 hPa Calm     85% 0.0 mm 9.00 W/m2
05:34 11.9 °C 9.5 °C 1019.9 hPa Calm     85% 0.0 mm 11.00 W/m2
05:39 11.8 °C 9.5 °C 1019.9 hPa Calm     86% 0.0 mm 12.00 W/m2
05:44 11.8 °C 9.5 °C 1019.9 hPa Calm     86% 0.0 mm 14.00 W/m2
05:49 11.8 °C 9.5 °C 1019.9 hPa Calm     86% 0.0 mm 18.00 W/m2
05:54 11.8 °C 9.5 °C 1019.9 hPa Calm     86% 0.0 mm 23.00 W/m2
05:59 11.8 °C 9.5 °C 1019.9 hPa Calm     86% 0.0 mm 26.00 W/m2
06:04 11.7 °C 9.4 °C 1019.9 hPa Calm     86% 0.0 mm 28.00 W/m2
06:09 11.8 °C 9.5 °C 1019.9 hPa Calm     86% 0.0 mm 30.00 W/m2
06:14 11.8 °C 9.5 °C 1019.9 hPa Calm     86% 0.0 mm 32.00 W/m2
06:19 11.9 °C 9.8 °C 1019.9 hPa Calm     87% 0.0 mm 35.00 W/m2
06:24 12.0 °C 9.7 °C 1019.9 hPa Calm   1.6 km/h 86% 0.0 mm 37.00 W/m2
06:29 12.1 °C 9.8 °C 1019.9 hPa Calm     86% 0.0 mm 39.00 W/m2
06:34 12.1 °C 9.8 °C 1019.9 hPa Calm     86% 0.0 mm 42.00 W/m2
06:39 12.2 °C 9.9 °C 1019.9 hPa Calm     86% 0.0 mm 46.00 W/m2
06:44 12.3 °C 10.0 °C 1019.9 hPa WSW 1.6 km/h 1.6 km/h 86% 0.0 mm 51.00 W/m2
06:49 12.3 °C 10.0 °C 1019.9 hPa Calm     86% 0.0 mm 60.00 W/m2
06:54 12.4 °C 10.1 °C 1019.9 hPa Calm     86% 0.0 mm 70.00 W/m2
06:59 12.6 °C 10.3 °C 1019.9 hPa Calm     86% 0.0 mm 81.00 W/m2
07:04 13.0 °C 10.7 °C 1019.9 hPa Calm   1.6 km/h 86% 0.0 mm 95.00 W/m2
07:09 13.5 °C 11.2 °C 1019.9 hPa Calm   1.6 km/h 86% 0.0 mm 105.00 W/m2
07:14 13.9 °C 11.4 °C 1019.9 hPa Calm     85% 0.0 mm 120.00 W/m2
07:19 14.3 °C 11.6 °C 1019.9 hPa Calm   1.6 km/h 84% 0.0 mm 135.00 W/m2
07:24 14.6 °C 11.7 °C 1019.9 hPa Calm     83% 0.0 mm 151.00 W/m2
07:29 15.0 °C 12.0 °C 1019.9 hPa Calm     82% 0.0 mm 167.00 W/m2
07:34 15.3 °C 11.9 °C 1019.9 hPa Calm   1.6 km/h 80% 0.0 mm 183.00 W/m2
07:39 15.1 °C 11.3 °C 1019.9 hPa Calm   1.6 km/h 78% 0.0 mm 197.00 W/m2
07:44 15.2 °C 11.2 °C 1019.9 hPa Calm   1.6 km/h 77% 0.0 mm 209.00 W/m2
07:49 15.4 °C 11.4 °C 1019.9 hPa Calm     77% 0.0 mm 223.00 W/m2
07:54 15.4 °C 11.2 °C 1019.9 hPa Calm     76% 0.0 mm 239.00 W/m2
07:59 15.5 °C 11.3 °C 1019.9 hPa WSW 1.4 km/h 3.2 km/h 76% 0.0 mm 251.00 W/m2
08:04 15.5 °C 11.1 °C 1019.9 hPa Calm   1.6 km/h 75% 0.0 mm 267.00 W/m2
08:09 15.8 °C 11.4 °C 1019.9 hPa Calm     75% 0.0 mm 285.00 W/m2
08:14 16.0 °C 11.6 °C 1019.9 hPa Calm   1.6 km/h 75% 0.0 mm 297.00 W/m2
08:19 16.1 °C 11.5 °C 1019.5 hPa Calm   4.8 km/h 74% 0.0 mm 315.00 W/m2
08:24 16.1 °C 11.5 °C 1019.5 hPa Calm   3.2 km/h 74% 0.0 mm 327.00 W/m2
08:29 16.3 °C 11.7 °C 1019.5 hPa SW 11.3 km/h 11.3 km/h 74% 0.0 mm 345.00 W/m2
08:34 16.4 °C 11.8 °C 1019.5 hPa Calm   3.2 km/h 74% 0.0 mm 360.00 W/m2
08:39 16.6 °C 11.7 °C 1019.5 hPa SSW 4.7 km/h 6.4 km/h 73% 0.0 mm 376.00 W/m2
08:44 16.7 °C 11.8 °C 1019.5 hPa SSW 4.7 km/h 8.0 km/h 73% 0.0 mm 390.00 W/m2
08:49 16.8 °C 11.9 °C 1019.5 hPa Calm   4.8 km/h 73% 0.0 mm 404.00 W/m2
08:54 17.3 °C 12.2 °C 1019.5 hPa SSW 3.2 km/h 4.8 km/h 72% 0.0 mm 417.00 W/m2
08:59 17.4 °C 12.3 °C 1019.5 hPa SSW 3.2 km/h 3.2 km/h 72% 0.0 mm 432.00 W/m2
09:04 17.3 °C 12.0 °C 1019.5 hPa SSW 6.4 km/h 6.4 km/h 71% 0.0 mm 445.00 W/m2
09:09 17.4 °C 12.3 °C 1019.5 hPa SSW 4.7 km/h 6.4 km/h 72% 0.0 mm 459.00 W/m2
09:14 18.0 °C 12.7 °C 1019.5 hPa Calm   3.2 km/h 71% 0.0 mm 471.00 W/m2
09:19 18.0 °C 12.4 °C 1019.5 hPa WSW 3.2 km/h 8.0 km/h 70% 0.0 mm 483.00 W/m2
09:24 18.4 °C 12.8 °C 1019.5 hPa WSW 1.4 km/h 6.4 km/h 70% 0.0 mm 496.00 W/m2
09:29 18.4 °C 12.6 °C 1019.5 hPa WSW 4.7 km/h 8.0 km/h 69% 0.0 mm 506.00 W/m2
09:34 18.7 °C 12.9 °C 1019.5 hPa WSW 1.4 km/h 3.2 km/h 69% 0.0 mm 519.00 W/m2
09:39 18.6 °C 12.8 °C 1019.5 hPa West 7.9 km/h 8.0 km/h 69% 0.0 mm 531.00 W/m2
09:44 18.8 °C 13.0 °C 1019.5 hPa West 4.7 km/h 8.0 km/h 69% 0.0 mm 540.00 W/m2
09:49 19.0 °C 13.2 °C 1019.5 hPa Calm   1.6 km/h 69% 0.0 mm 550.00 W/m2
09:54 19.2 °C 12.9 °C 1019.2 hPa West 1.4 km/h 6.4 km/h 67% 0.0 mm 564.00 W/m2
09:59 19.2 °C 13.1 °C 1019.2 hPa Calm   3.2 km/h 68% 0.0 mm 577.00 W/m2
10:04 19.4 °C 12.9 °C 1019.2 hPa Calm   3.2 km/h 66% 0.0 mm 582.00 W/m2
10:09 19.4 °C 12.9 °C 1019.2 hPa WSW 1.4 km/h 6.4 km/h 66% 0.0 mm 601.00 W/m2
10:14 19.4 °C 12.7 °C 1019.2 hPa WSW 4.7 km/h 9.7 km/h 65% 0.0 mm 621.00 W/m2
10:19 19.8 °C 13.0 °C 1019.2 hPa WSW 3.2 km/h 3.2 km/h 65% 0.0 mm 622.00 W/m2
10:24 19.8 °C 13.0 °C 1019.2 hPa WSW 1.4 km/h 3.2 km/h 65% 0.0 mm 668.00 W/m2
10:29 20.2 °C 12.9 °C 1019.2 hPa West 4.7 km/h 6.4 km/h 63% 0.0 mm 153.00 W/m2
10:34 19.8 °C 13.5 °C 1019.2 hPa West 4.7 km/h 9.7 km/h 67% 0.0 mm 540.00 W/m2
10:39 19.7 °C 13.9 °C 1019.2 hPa West 3.2 km/h 4.8 km/h 69% 0.0 mm 712.00 W/m2
10:44 20.1 °C 14.0 °C 1018.8 hPa West 1.4 km/h 6.4 km/h 68% 0.0 mm 751.00 W/m2
10:49 20.6 °C 14.0 °C 1018.8 hPa West 4.7 km/h 11.3 km/h 66% 0.0 mm 735.00 W/m2
10:54 20.4 °C 13.6 °C 1018.8 hPa West 6.4 km/h 6.4 km/h 65% 0.0 mm 756.00 W/m2
10:59 21.2 °C 14.4 °C 1018.8 hPa West 3.2 km/h 3.2 km/h 65% 0.0 mm 780.00 W/m2
11:04 22.0 °C 13.6 °C 1018.8 hPa NNE 4.7 km/h 8.0 km/h 59% 0.0 mm 789.00 W/m2
11:09 22.4 °C 14.0 °C 1018.8 hPa NNE 1.4 km/h 3.2 km/h 59% 0.0 mm 782.00 W/m2
11:14 22.4 °C 13.7 °C 1018.8 hPa Calm   6.4 km/h 58% 0.0 mm 793.00 W/m2
11:19 21.7 °C 13.3 °C 1018.8 hPa SSE 1.4 km/h 11.3 km/h 59% 0.0 mm 800.00 W/m2
11:24 21.7 °C 13.1 °C 1018.8 hPa SSE 6.4 km/h 6.4 km/h 58% 0.0 mm 803.00 W/m2
11:29 21.4 °C 13.1 °C 1018.8 hPa South 7.9 km/h 8.0 km/h 59% 0.0 mm 795.00 W/m2
11:34 21.7 °C 13.1 °C 1018.8 hPa South 1.4 km/h 6.4 km/h 58% 0.0 mm 807.00 W/m2
11:39 22.5 °C 12.4 °C 1018.8 hPa Calm   9.7 km/h 53% 0.0 mm 824.00 W/m2
11:44 23.8 °C 12.8 °C 1018.8 hPa SE 1.4 km/h 8.0 km/h 50% 0.0 mm 828.00 W/m2
11:49 24.1 °C 13.0 °C 1018.8 hPa SE 3.2 km/h 6.4 km/h 50% 0.0 mm 844.00 W/m2
11:54 22.8 °C 13.0 °C 1018.8 hPa South 4.7 km/h 6.4 km/h 54% 0.0 mm 846.00 W/m2
11:59 22.5 °C 12.4 °C 1018.8 hPa South 3.2 km/h 8.0 km/h 53% 0.0 mm 847.00 W/m2
12:04 22.8 °C 13.0 °C 1018.8 hPa South 3.2 km/h 8.0 km/h 54% 0.0 mm 863.00 W/m2
12:09 24.5 °C 13.1 °C 1018.8 hPa Calm   8.0 km/h 49% 0.0 mm 861.00 W/m2
12:14 24.1 °C 12.7 °C 1018.8 hPa SE 3.2 km/h 6.4 km/h 49% 0.0 mm 891.00 W/m2
12:19 23.5 °C 12.2 °C 1018.5 hPa Calm   3.2 km/h 49% 0.0 mm 886.00 W/m2
12:24 23.0 °C 12.0 °C 1018.5 hPa ESE 1.4 km/h 11.3 km/h 50% 0.0 mm 898.00 W/m2
12:29 25.0 °C 12.2 °C 1018.8 hPa East 1.4 km/h 9.7 km/h 45% 0.0 mm 909.00 W/m2
12:34 24.2 °C 12.2 °C 1018.5 hPa ENE 1.4 km/h 3.2 km/h 47% 0.0 mm 921.00 W/m2
12:39 24.8 °C 12.4 °C 1018.5 hPa NNE 7.9 km/h 12.9 km/h 46% 0.0 mm 905.00 W/m2
12:44 23.3 °C 12.0 °C 1018.5 hPa North 3.2 km/h 6.4 km/h 49% 0.0 mm 846.00 W/m2
12:49 23.6 °C 12.3 °C 1018.5 hPa North 1.4 km/h 4.8 km/h 49% 0.0 mm 202.00 W/m2
12:54 23.3 °C 12.6 °C 1018.5 hPa North 4.7 km/h 4.8 km/h 51% 0.0 mm 216.00 W/m2
12:59 23.0 °C 11.7 °C 1018.2 hPa North 3.2 km/h 4.8 km/h 49% 0.0 mm 160.00 W/m2
13:04 22.7 °C 11.4 °C 1018.2 hPa SSE 1.4 km/h 6.4 km/h 49% 0.0 mm 204.00 W/m2
13:09 22.7 °C 11.4 °C 1018.2 hPa South 1.4 km/h 6.4 km/h 49% 0.0 mm 909.00 W/m2
13:14 23.0 °C 11.7 °C 1018.2 hPa SSE 9.7 km/h 11.3 km/h 49% 0.0 mm 896.00 W/m2
13:19 22.7 °C 11.1 °C 1018.2 hPa SSE 1.4 km/h 8.0 km/h 48% 0.0 mm 891.00 W/m2
13:24 23.7 °C 12.0 °C 1018.2 hPa Calm   3.2 km/h 48% 0.0 mm 914.00 W/m2
13:29 24.9 °C 12.1 °C 1018.2 hPa NE 12.9 km/h 12.9 km/h 45% 0.0 mm 900.00 W/m2
13:34 24.9 °C 11.8 °C 1018.2 hPa ESE 6.4 km/h 8.0 km/h 44% 0.0 mm 882.00 W/m2
13:39 24.0 °C 10.6 °C 1017.8 hPa SW 6.4 km/h 11.3 km/h 43% 0.0 mm 881.00 W/m2
13:44 23.6 °C 11.0 °C 1017.8 hPa West 9.7 km/h 11.3 km/h 45% 0.0 mm 867.00 W/m2
13:49 23.8 °C 10.8 °C 1017.8 hPa South 4.7 km/h 9.7 km/h 44% 0.0 mm 877.00 W/m2
13:54 23.8 °C 11.5 °C 1017.8 hPa Calm   6.4 km/h 46% 0.0 mm 867.00 W/m2
13:59 24.0 °C 11.3 °C 1017.8 hPa SSE 1.4 km/h 11.3 km/h 45% 0.0 mm 888.00 W/m2
14:04 24.5 °C 11.4 °C 1017.8 hPa SSE 4.7 km/h 9.7 km/h 44% 0.0 mm 896.00 W/m2
14:09 25.3 °C 11.8 °C 1017.8 hPa SSE 4.7 km/h 4.8 km/h 43% 0.0 mm 900.00 W/m2
14:14 24.3 °C 11.6 °C 1017.8 hPa Calm   8.0 km/h 45% 0.0 mm 918.00 W/m2
14:19 24.4 °C 11.7 °C 1017.8 hPa SSE 3.2 km/h 8.0 km/h 45% 0.0 mm 898.00 W/m2
14:24 24.0 °C 11.3 °C 1017.8 hPa SSE 3.2 km/h 4.8 km/h 45% 0.0 mm 329.00 W/m2
14:29 24.5 °C 12.1 °C 1017.5 hPa Calm   1.6 km/h 46% 0.0 mm 812.00 W/m2
14:34 25.0 °C 11.9 °C 1017.5 hPa SSE 1.4 km/h 8.0 km/h 44% 0.0 mm 902.00 W/m2
14:39 25.0 °C 12.2 °C 1017.5 hPa SE 3.2 km/h 9.7 km/h 45% 0.0 mm 900.00 W/m2
14:44 24.9 °C 12.1 °C 1017.5 hPa SE 1.4 km/h 6.4 km/h 45% 0.0 mm 218.00 W/m2
14:49 25.5 °C 12.4 °C 1017.5 hPa SSE 6.4 km/h 8.0 km/h 44% 0.0 mm 241.00 W/m2
14:54 24.9 °C 12.1 °C 1017.5 hPa SSE 3.2 km/h 3.2 km/h 45% 0.0 mm 248.00 W/m2
14:59 24.4 °C 12.0 °C 1017.5 hPa SSE 1.4 km/h 4.8 km/h 46% 0.0 mm 568.00 W/m2
15:04 24.4 °C 12.0 °C 1017.5 hPa SSE 4.7 km/h 8.0 km/h 46% 0.0 mm 281.00 W/m2
15:09 24.2 °C 11.8 °C 1017.5 hPa SSE 7.9 km/h 9.7 km/h 46% 0.0 mm 835.00 W/m2
15:14 24.0 °C 12.0 °C 1017.5 hPa SSE 3.2 km/h 8.0 km/h 47% 0.0 mm 830.00 W/m2
15:19 24.6 °C 12.5 °C 1017.5 hPa SSE 4.7 km/h 6.4 km/h 47% 0.0 mm 817.00 W/m2
15:24 26.6 °C 12.6 °C 1017.5 hPa Calm   6.4 km/h 42% 0.0 mm 865.00 W/m2
15:29 25.7 °C 11.8 °C 1017.5 hPa SSW 4.7 km/h 12.9 km/h 42% 0.0 mm 828.00 W/m2
15:34 25.7 °C 12.2 °C 1017.2 hPa SSW 3.2 km/h 6.4 km/h 43% 0.0 mm 789.00 W/m2
15:39 25.0 °C 11.9 °C 1017.2 hPa SSE 3.2 km/h 9.7 km/h 44% 0.0 mm 812.00 W/m2
15:44 25.5 °C 12.0 °C 1017.2 hPa SSE 1.4 km/h 4.8 km/h 43% 0.0 mm 759.00 W/m2
15:49 26.2 °C 12.6 °C 1017.2 hPa ESE 3.2 km/h 4.8 km/h 43% 0.0 mm 800.00 W/m2
15:54 26.5 °C 12.5 °C 1017.2 hPa ESE 1.4 km/h 3.2 km/h 42% 0.0 mm 777.00 W/m2
15:59 25.6 °C 11.7 °C 1017.2 hPa SSE 7.9 km/h 11.3 km/h 42% 0.0 mm 793.00 W/m2
16:04 25.8 °C 12.3 °C 1017.2 hPa SSE 6.4 km/h 8.0 km/h 43% 0.0 mm 807.00 W/m2
16:09 27.1 °C 12.7 °C 1017.2 hPa ESE 4.7 km/h 6.4 km/h 41% 0.0 mm 656.00 W/m2
16:14 27.0 °C 12.6 °C 1017.2 hPa ESE 1.4 km/h 4.8 km/h 41% 0.0 mm 691.00 W/m2
16:19 26.6 °C 12.3 °C 1016.8 hPa Calm   6.4 km/h 41% 0.0 mm 246.00 W/m2
16:24 25.5 °C 12.0 °C 1016.8 hPa Calm   6.4 km/h 43% 0.0 mm 726.00 W/m2
16:29 25.3 °C 11.8 °C 1016.8 hPa ESE 9.7 km/h 9.7 km/h 43% 0.0 mm 728.00 W/m2
16:34 25.3 °C 11.8 °C 1016.8 hPa ESE 1.4 km/h 8.0 km/h 43% 0.0 mm 756.00 W/m2
16:39 25.9 °C 12.0 °C 1016.8 hPa ESE 1.4 km/h 9.7 km/h 42% 0.0 mm 246.00 W/m2
16:44 26.0 °C 12.1 °C 1016.8 hPa Calm   1.6 km/h 42% 0.0 mm 239.00 W/m2
16:49 25.8 °C 12.3 °C 1016.8 hPa ESE 3.2 km/h 4.8 km/h 43% 0.0 mm 202.00 W/m2
16:54 26.0 °C 12.5 °C 1016.8 hPa Calm   3.2 km/h 43% 0.0 mm 197.00 W/m2
16:59 26.2 °C 12.3 °C 1016.8 hPa Calm   1.6 km/h 42% 0.0 mm 169.00 W/m2
17:04 25.5 °C 12.0 °C 1016.8 hPa Calm   1.6 km/h 43% 0.0 mm 146.00 W/m2
17:09 25.3 °C 12.5 °C 1016.8 hPa Calm   1.6 km/h 45% 0.0 mm 128.00 W/m2
17:14 24.9 °C 12.1 °C 1016.8 hPa Calm   6.4 km/h 45% 0.0 mm 114.00 W/m2
17:19 24.7 °C 13.6 °C 1016.8 hPa East 11.3 km/h 11.3 km/h 50% 0.0 mm 104.00 W/m2
17:24 23.8 °C 13.9 °C 1016.8 hPa NW 9.7 km/h 11.3 km/h 54% 0.0 mm 97.00 W/m2
17:29 23.7 °C 14.1 °C 1016.8 hPa NW 7.9 km/h 8.0 km/h 55% 0.0 mm 100.00 W/m2
17:34 23.6 °C 14.0 °C 1016.8 hPa WNW 6.4 km/h 12.9 km/h 55% 0.0 mm 105.00 W/m2
17:39 23.5 °C 14.2 °C 1016.8 hPa WNW 4.7 km/h 9.7 km/h 56% 0.0 mm 109.00 W/m2
17:44 23.5 °C 13.9 °C 1016.8 hPa WNW 7.9 km/h 12.9 km/h 55% 0.0 mm 118.00 W/m2
17:49 23.4 °C 13.8 °C 1016.8 hPa WNW 6.4 km/h 6.4 km/h 55% 0.0 mm 127.00 W/m2
17:54 23.4 °C 13.6 °C 1016.8 hPa WNW 9.7 km/h 9.7 km/h 54% 0.0 mm 135.00 W/m2
17:59 23.4 °C 13.8 °C 1016.8 hPa West 7.9 km/h 12.9 km/h 55% 0.0 mm 158.00 W/m2
18:04 23.4 °C 13.8 °C 1016.5 hPa West 4.7 km/h 8.0 km/h 55% 0.0 mm 160.00 W/m2
18:09 23.4 °C 13.6 °C 1016.8 hPa West 6.4 km/h 11.3 km/h 54% 0.0 mm 171.00 W/m2
18:14 23.4 °C 13.6 °C 1016.5 hPa West 4.7 km/h 9.7 km/h 54% 0.0 mm 172.00 W/m2
18:19 23.4 °C 13.6 °C 1016.8 hPa West 1.4 km/h 8.0 km/h 54% 0.0 mm 183.00 W/m2
18:24 23.6 °C 13.5 °C 1016.8 hPa West 4.7 km/h 6.4 km/h 53% 0.0 mm 227.00 W/m2
18:29 23.4 °C 13.3 °C 1016.8 hPa NW 9.7 km/h 12.9 km/h 53% 0.0 mm 360.00 W/m2
18:34 23.4 °C 13.6 °C 1016.5 hPa NNW 3.2 km/h 14.5 km/h 54% 0.0 mm 369.00 W/m2
18:39 23.7 °C 13.6 °C 1016.5 hPa Calm   8.0 km/h 53% 0.0 mm 318.00 W/m2
18:44 24.0 °C 13.5 °C 1016.5 hPa NW 3.2 km/h 8.0 km/h 52% 0.0 mm 308.00 W/m2
18:49 23.9 °C 13.4 °C 1016.5 hPa NW 3.2 km/h 11.3 km/h 52% 0.0 mm 134.00 W/m2
18:54 23.5 °C 13.1 °C 1016.5 hPa WNW 6.4 km/h 9.7 km/h 52% 0.0 mm 151.00 W/m2
18:59 23.4 °C 13.6 °C 1016.5 hPa WNW 6.4 km/h 16.1 km/h 54% 0.0 mm 125.00 W/m2
19:04 23.2 °C 13.7 °C 1016.5 hPa WNW 6.4 km/h 12.9 km/h 55% 0.0 mm 123.00 W/m2
19:09 23.0 °C 13.5 °C 1016.5 hPa WNW 4.7 km/h 9.7 km/h 55% 0.0 mm 120.00 W/m2
19:14 23.0 °C 13.5 °C 1016.5 hPa WNW 6.4 km/h 11.3 km/h 55% 0.0 mm 100.00 W/m2
19:19 22.9 °C 13.1 °C 1016.5 hPa West 7.9 km/h 11.3 km/h 54% 0.0 mm 97.00 W/m2
19:24 22.8 °C 13.0 °C 1016.5 hPa West 7.9 km/h 9.7 km/h 54% 0.0 mm 77.00 W/m2
19:29 22.7 °C 12.9 °C 1016.5 hPa West 11.1 km/h 11.3 km/h 54% 0.0 mm 67.00 W/m2
19:34 22.6 °C 12.8 °C 1016.8 hPa WSW 1.4 km/h 11.3 km/h 54% 0.0 mm 60.00 W/m2
19:39 22.7 °C 12.9 °C 1016.5 hPa WSW 6.4 km/h 14.5 km/h 54% 0.0 mm 60.00 W/m2
19:44 22.7 °C 12.9 °C 1016.5 hPa West 1.4 km/h 11.3 km/h 54% 0.0 mm 54.00 W/m2
19:49 22.7 °C 12.9 °C 1016.5 hPa West 4.7 km/h 14.5 km/h 54% 0.0 mm 65.00 W/m2
19:54 22.5 °C 12.7 °C 1016.5 hPa West 6.4 km/h 11.3 km/h 54% 0.0 mm 62.00 W/m2
19:59 22.4 °C 12.6 °C 1016.8 hPa West 7.9 km/h 11.3 km/h 54% 0.0 mm 56.00 W/m2
20:04 22.3 °C 12.5 °C 1016.5 hPa West 3.2 km/h 9.7 km/h 54% 0.0 mm 49.00 W/m2
20:09 22.3 °C 12.5 °C 1016.8 hPa West 3.2 km/h 6.4 km/h 54% 0.0 mm 53.00 W/m2
20:14 22.2 °C 12.7 °C 1016.8 hPa West 6.4 km/h 8.0 km/h 55% 0.0 mm 67.00 W/m2
20:19 22.0 °C 12.8 °C 1016.8 hPa West 6.4 km/h 12.9 km/h 56% 0.0 mm 60.00 W/m2
20:24 21.9 °C 13.3 °C 1016.8 hPa West 7.9 km/h 11.3 km/h 58% 0.0 mm 53.00 W/m2
20:29 21.7 °C 13.8 °C 1016.8 hPa WSW 17.7 km/h 17.7 km/h 61% 0.0 mm 46.00 W/m2
20:34 21.5 °C 13.9 °C 1016.8 hPa West 7.9 km/h 11.3 km/h 62% 0.0 mm 35.00 W/m2
20:39 21.3 °C 14.0 °C 1016.8 hPa WSW 13.0 km/h 12.9 km/h 63% 0.0 mm 28.00 W/m2
20:44 21.0 °C 14.4 °C 1016.8 hPa WSW 7.9 km/h 11.3 km/h 66% 0.0 mm 25.00 W/m2
20:49 20.7 °C 14.6 °C 1016.8 hPa WSW 4.7 km/h 14.5 km/h 68% 0.0 mm 18.00 W/m2
20:54 20.4 °C 14.5 °C 1016.8 hPa WSW 1.4 km/h 6.4 km/h 69% 0.0 mm 14.00 W/m2
20:59 20.4 °C 14.5 °C 1016.8 hPa WSW 6.4 km/h 6.4 km/h 69% 0.0 mm 11.00 W/m2
21:04 20.2 °C 14.6 °C 1016.8 hPa Calm   6.4 km/h 70% 0.0 mm 9.00 W/m2
21:09 20.1 °C 14.5 °C 1016.8 hPa WSW 4.7 km/h 6.4 km/h 70% 0.0 mm 7.00 W/m2
21:14 19.8 °C 14.4 °C 1017.2 hPa WSW 9.7 km/h 9.7 km/h 71% 0.0 mm 0.00 W/m2
21:19 19.7 °C 14.3 °C 1017.2 hPa WSW 3.2 km/h 6.4 km/h 71% 0.0 mm 0.00 W/m2
21:24 19.4 °C 14.0 °C 1017.2 hPa WSW 1.4 km/h 6.4 km/h 71% 0.0 mm 0.00 W/m2
21:27 19.3 °C 13.9 °C 1017.2 hPa WSW 4.7 km/h 4.8 km/h 71% 0.0 mm 0.00 W/m2
21:34 19.1 °C 13.9 °C 1017.5 hPa WSW 1.4 km/h 3.2 km/h 72% 0.0 mm 0.00 W/m2
21:39 19.0 °C 13.8 °C 1017.5 hPa WSW 12.9 km/h 12.9 km/h 72% 0.0 mm 0.00 W/m2
21:44 18.9 °C 13.7 °C 1017.5 hPa WSW 1.4 km/h 8.0 km/h 72% 0.0 mm 0.00 W/m2
21:49 18.9 °C 13.7 °C 1017.5 hPa WSW 3.2 km/h 6.4 km/h 72% 0.0 mm 0.00 W/m2
21:54 18.7 °C 13.5 °C 1017.5 hPa WSW 6.4 km/h 6.4 km/h 72% 0.0 mm 0.00 W/m2
21:57 18.7 °C 13.5 °C 1017.5 hPa WSW 1.4 km/h 3.2 km/h 72% 0.0 mm 0.00 W/m2
21:59 18.7 °C 13.5 °C 1017.5 hPa Calm   3.2 km/h 72% 0.0 mm 0.00 W/m2
22:02 18.5 °C 13.4 °C 1017.5 hPa WSW 1.4 km/h 6.4 km/h 72% 0.0 mm 0.00 W/m2
22:06 18.5 °C 13.6 °C 1017.5 hPa WSW 4.7 km/h 6.4 km/h 73% 0.0 mm 0.00 W/m2
22:10 18.4 °C 13.3 °C 1017.5 hPa Calm   4.8 km/h 72% 0.0 mm 0.00 W/m2
22:14 18.3 °C 13.4 °C 1017.5 hPa WSW 3.2 km/h 6.4 km/h 73% 0.0 mm 0.00 W/m2
22:19 18.0 °C 13.1 °C 1017.5 hPa WSW 6.4 km/h 9.7 km/h 73% 0.0 mm 0.00 W/m2
22:24 17.9 °C 13.0 °C 1017.5 hPa WSW 3.2 km/h 8.0 km/h 73% 0.0 mm 0.00 W/m2
22:29 17.8 °C 13.1 °C 1017.5 hPa WSW 3.2 km/h 4.8 km/h 74% 0.0 mm 0.00 W/m2
22:35 17.6 °C 12.9 °C 1017.5 hPa WSW 3.2 km/h 4.8 km/h 74% 0.0 mm 0.00 W/m2
22:46 17.4 °C 12.7 °C 1017.5 hPa Calm   4.8 km/h 74% 0.0 mm 0.00 W/m2
22:54 17.2 °C 12.5 °C 1017.5 hPa West 6.4 km/h 14.5 km/h 74% 0.0 mm 0.00 W/m2
22:58 17.3 °C 12.6 °C 1017.5 hPa West 7.9 km/h 11.3 km/h 74% 0.0 mm 0.00 W/m2
23:04 17.3 °C 12.6 °C 1017.5 hPa West 4.7 km/h 11.3 km/h 74% 0.0 mm 0.00 W/m2
23:09 17.2 °C 12.5 °C 1017.5 hPa West 9.7 km/h 9.7 km/h 74% 0.0 mm 0.00 W/m2
23:14 17.2 °C 12.5 °C 1017.5 hPa West 4.7 km/h 8.0 km/h 74% 0.0 mm 0.00 W/m2
23:19 17.1 °C 12.6 °C 1017.5 hPa West 4.7 km/h 6.4 km/h 75% 0.0 mm 0.00 W/m2
23:24 17.0 °C 12.5 °C 1017.5 hPa West 3.2 km/h 6.4 km/h 75% 0.0 mm 0.00 W/m2
23:29 17.0 °C 12.5 °C 1017.5 hPa West 4.7 km/h 6.4 km/h 75% 0.0 mm 0.00 W/m2
23:34 16.9 °C 12.4 °C 1017.5 hPa Calm   9.7 km/h 75% 0.0 mm 0.00 W/m2
23:39 16.9 °C 12.4 °C 1017.5 hPa West 1.4 km/h 3.2 km/h 75% 0.0 mm 0.00 W/m2
23:44 16.8 °C 12.5 °C 1017.5 hPa Calm     76% 0.0 mm 0.00 W/m2
23:49 16.8 °C 12.5 °C 1017.5 hPa Calm     76% 0.0 mm 0.00 W/m2
23:54 16.8 °C 12.7 °C 1017.5 hPa Calm     77% 0.0 mm 0.00 W/m2
23:59 16.7 °C 12.6 °C 1017.5 hPa Calm     77% 0.0 mm 0.00 W/m2